sensor_id;sensor_type;location;lat;lon;timestamp;pressure;altitude;pressure_sealevel;temperature;humidity
16355;BME280;8287;51.644;8.494;2023-02-28T00:00:48;101834.50;;;2.34;69.36
16355;BME280;8287;51.644;8.494;2023-02-28T00:03:15;101836.59;;;2.25;69.87
16355;BME280;8287;51.644;8.494;2023-02-28T00:05:42;101838.13;;;2.33;70.00
16355;BME280;8287;51.644;8.494;2023-02-28T00:08:09;101836.16;;;2.28;70.23
16355;BME280;8287;51.644;8.494;2023-02-28T00:10:36;101830.53;;;2.31;70.69
16355;BME280;8287;51.644;8.494;2023-02-28T00:13:04;101836.22;;;2.22;70.28
16355;BME280;8287;51.644;8.494;2023-02-28T00:15:33;101845.72;;;2.16;70.17
16355;BME280;8287;51.644;8.494;2023-02-28T00:18:00;101839.72;;;2.09;70.46
16355;BME280;8287;51.644;8.494;2023-02-28T00:20:27;101837.91;;;2.10;70.69
16355;BME280;8287;51.644;8.494;2023-02-28T00:22:54;101831.13;;;2.02;70.43
16355;BME280;8287;51.644;8.494;2023-02-28T00:25:23;101836.09;;;2.10;71.14
16355;BME280;8287;51.644;8.494;2023-02-28T00:27:50;101830.97;;;1.97;70.66
16355;BME280;8287;51.644;8.494;2023-02-28T00:30:18;101838.63;;;1.92;71.17
16355;BME280;8287;51.644;8.494;2023-02-28T00:32:47;101827.91;;;2.00;71.32
16355;BME280;8287;51.644;8.494;2023-02-28T00:35:14;101829.34;;;1.96;71.29
16355;BME280;8287;51.644;8.494;2023-02-28T00:37:40;101825.00;;;1.84;71.13
16355;BME280;8287;51.644;8.494;2023-02-28T00:40:09;101835.63;;;1.89;71.42
16355;BME280;8287;51.644;8.494;2023-02-28T00:42:36;101836.00;;;1.92;71.61
16355;BME280;8287;51.644;8.494;2023-02-28T00:45:04;101829.25;;;1.85;71.39
16355;BME280;8287;51.644;8.494;2023-02-28T00:47:31;101829.25;;;1.78;71.01
16355;BME280;8287;51.644;8.494;2023-02-28T00:50:00;101819.47;;;1.67;71.17
16355;BME280;8287;51.644;8.494;2023-02-28T00:52:26;101822.91;;;1.68;71.15
16355;BME280;8287;51.644;8.494;2023-02-28T00:54:53;101824.75;;;1.61;71.64
16355;BME280;8287;51.644;8.494;2023-02-28T00:57:20;101826.53;;;1.60;70.95
16355;BME280;8287;51.644;8.494;2023-02-28T00:59:46;101830.59;;;1.56;71.86
16355;BME280;8287;51.644;8.494;2023-02-28T01:02:13;101826.19;;;1.50;71.34
16355;BME280;8287;51.644;8.494;2023-02-28T01:04:40;101826.97;;;1.57;71.43
16355;BME280;8287;51.644;8.494;2023-02-28T01:07:08;101829.34;;;1.59;71.93
16355;BME280;8287;51.644;8.494;2023-02-28T01:09:35;101825.38;;;1.50;72.28
16355;BME280;8287;51.644;8.494;2023-02-28T01:12:01;101824.38;;;1.51;73.15
16355;BME280;8287;51.644;8.494;2023-02-28T01:14:28;101822.59;;;1.45;72.45
16355;BME280;8287;51.644;8.494;2023-02-28T01:16:55;101826.84;;;1.39;72.59
16355;BME280;8287;51.644;8.494;2023-02-28T01:19:21;101822.03;;;1.43;72.17
16355;BME280;8287;51.644;8.494;2023-02-28T01:21:48;101830.25;;;1.40;72.34
16355;BME280;8287;51.644;8.494;2023-02-28T01:24:16;101827.47;;;1.28;72.27
16355;BME280;8287;51.644;8.494;2023-02-28T01:26:42;101825.50;;;1.30;72.53
16355;BME280;8287;51.644;8.494;2023-02-28T01:29:09;101825.09;;;1.20;72.46
16355;BME280;8287;51.644;8.494;2023-02-28T01:31:36;101829.31;;;1.21;72.46
16355;BME280;8287;51.644;8.494;2023-02-28T01:34:03;101832.97;;;1.14;72.22
16355;BME280;8287;51.644;8.494;2023-02-28T01:36:29;101832.41;;;1.05;72.35
16355;BME280;8287;51.644;8.494;2023-02-28T01:38:56;101828.97;;;1.05;72.55
16355;BME280;8287;51.644;8.494;2023-02-28T01:41:26;101826.56;;;1.03;72.80
16355;BME280;8287;51.644;8.494;2023-02-28T01:43:56;101827.56;;;1.02;72.96
16355;BME280;8287;51.644;8.494;2023-02-28T01:46:23;101820.38;;;0.91;72.59
16355;BME280;8287;51.644;8.494;2023-02-28T01:48:52;101838.06;;;0.89;72.58
16355;BME280;8287;51.644;8.494;2023-02-28T01:51:26;101833.25;;;0.80;72.92
16355;BME280;8287;51.644;8.494;2023-02-28T01:53:57;101830.03;;;0.84;73.33
16355;BME280;8287;51.644;8.494;2023-02-28T01:56:29;101822.63;;;0.81;73.36
16355;BME280;8287;51.644;8.494;2023-02-28T01:58:57;101832.66;;;0.78;73.85
16355;BME280;8287;51.644;8.494;2023-02-28T02:01:26;101828.22;;;0.78;73.99
16355;BME280;8287;51.644;8.494;2023-02-28T02:03:55;101827.00;;;0.81;73.53
16355;BME280;8287;51.644;8.494;2023-02-28T02:06:23;101822.81;;;0.73;73.69
16355;BME280;8287;51.644;8.494;2023-02-28T02:08:51;101824.44;;;0.74;73.38
16355;BME280;8287;51.644;8.494;2023-02-28T02:11:19;101823.59;;;0.74;72.95
16355;BME280;8287;51.644;8.494;2023-02-28T02:16:53;101821.22;;;0.72;73.45
16355;BME280;8287;51.644;8.494;2023-02-28T02:19:52;101822.81;;;0.73;73.08
16355;BME280;8287;51.644;8.494;2023-02-28T02:22:44;101818.00;;;0.70;73.46
16355;BME280;8287;51.644;8.494;2023-02-28T02:25:27;101819.44;;;0.60;73.18
16355;BME280;8287;51.644;8.494;2023-02-28T02:28:20;101817.41;;;0.62;72.91
16355;BME280;8287;51.644;8.494;2023-02-28T02:31:02;101816.03;;;0.53;72.74
16355;BME280;8287;51.644;8.494;2023-02-28T02:34:10;101818.41;;;0.54;73.68
16355;BME280;8287;51.644;8.494;2023-02-28T02:36:48;101813.63;;;0.51;73.23
16355;BME280;8287;51.644;8.494;2023-02-28T02:39:21;101812.59;;;0.52;73.58
16355;BME280;8287;51.644;8.494;2023-02-28T02:41:54;101819.84;;;0.50;73.31
16355;BME280;8287;51.644;8.494;2023-02-28T02:44:28;101817.22;;;0.50;73.59
16355;BME280;8287;51.644;8.494;2023-02-28T02:47:00;101822.03;;;0.47;73.16
16355;BME280;8287;51.644;8.494;2023-02-28T02:49:32;101814.22;;;0.47;73.30
16355;BME280;8287;51.644;8.494;2023-02-28T02:52:02;101822.47;;;0.44;73.05
16355;BME280;8287;51.644;8.494;2023-02-28T02:54:32;101811.44;;;0.42;72.95
16355;BME280;8287;51.644;8.494;2023-02-28T02:57:03;101814.03;;;0.42;73.00
16355;BME280;8287;51.644;8.494;2023-02-28T02:59:32;101815.00;;;0.41;73.12
16355;BME280;8287;51.644;8.494;2023-02-28T03:02:03;101814.41;;;0.39;72.83
16355;BME280;8287;51.644;8.494;2023-02-28T03:04:34;101816.44;;;0.37;72.57
16355;BME280;8287;51.644;8.494;2023-02-28T03:07:02;101816.03;;;0.27;72.28
16355;BME280;8287;51.644;8.494;2023-02-28T03:09:33;101818.66;;;0.27;72.78
16355;BME280;8287;51.644;8.494;2023-02-28T03:12:01;101819.25;;;0.29;73.07
16355;BME280;8287;51.644;8.494;2023-02-28T03:14:39;101816.66;;;0.22;72.71
16355;BME280;8287;51.644;8.494;2023-02-28T03:17:24;101817.44;;;0.29;73.02
16355;BME280;8287;51.644;8.494;2023-02-28T03:20:06;101818.03;;;0.31;73.24
16355;BME280;8287;51.644;8.494;2023-02-28T03:22:50;101810.00;;;0.26;72.20
16355;BME280;8287;51.644;8.494;2023-02-28T03:25:22;101819.06;;;0.30;73.07
16355;BME280;8287;51.644;8.494;2023-02-28T03:27:59;101814.44;;;0.32;73.53
16355;BME280;8287;51.644;8.494;2023-02-28T03:30:31;101815.22;;;0.33;72.48
16355;BME280;8287;51.644;8.494;2023-02-28T03:33:02;101819.44;;;0.27;72.53
16355;BME280;8287;51.644;8.494;2023-02-28T03:35:36;101815.25;;;0.13;73.38
16355;BME280;8287;51.644;8.494;2023-02-28T03:38:08;101820.22;;;0.15;73.95
16355;BME280;8287;51.644;8.494;2023-02-28T03:40:43;101827.25;;;0.14;74.20
16355;BME280;8287;51.644;8.494;2023-02-28T03:43:16;101825.66;;;0.13;74.38
16355;BME280;8287;51.644;8.494;2023-02-28T03:45:45;101824.63;;;0.08;74.23
16355;BME280;8287;51.644;8.494;2023-02-28T03:48:18;101821.63;;;-0.02;73.83
16355;BME280;8287;51.644;8.494;2023-02-28T03:50:49;101826.25;;;0.09;74.69
16355;BME280;8287;51.644;8.494;2023-02-28T03:53:20;101829.03;;;-0.06;73.98
16355;BME280;8287;51.644;8.494;2023-02-28T03:55:50;101827.03;;;-0.03;74.46
16355;BME280;8287;51.644;8.494;2023-02-28T03:58:23;101818.78;;;-0.13;74.29
16355;BME280;8287;51.644;8.494;2023-02-28T04:00:56;101816.19;;;-0.13;74.67
16355;BME280;8287;51.644;8.494;2023-02-28T04:03:25;101826.19;;;-0.17;74.68
16355;BME280;8287;51.644;8.494;2023-02-28T04:05:54;101822.97;;;-0.32;74.33
16355;BME280;8287;51.644;8.494;2023-02-28T04:08:22;101826.16;;;-0.36;74.76
16355;BME280;8287;51.644;8.494;2023-02-28T04:10:54;101824.16;;;-0.28;74.75
16355;BME280;8287;51.644;8.494;2023-02-28T04:13:23;101829.97;;;-0.32;75.14
16355;BME280;8287;51.644;8.494;2023-02-28T04:15:49;101829.78;;;-0.24;75.36
16355;BME280;8287;51.644;8.494;2023-02-28T04:18:16;101820.97;;;-0.30;74.77
16355;BME280;8287;51.644;8.494;2023-02-28T04:20:42;101826.75;;;-0.34;75.01
16355;BME280;8287;51.644;8.494;2023-02-28T04:23:10;101831.75;;;-0.39;74.79
16355;BME280;8287;51.644;8.494;2023-02-28T04:25:37;101829.72;;;-0.44;74.92
16355;BME280;8287;51.644;8.494;2023-02-28T04:28:05;101825.50;;;-0.51;75.01
16355;BME280;8287;51.644;8.494;2023-02-28T04:30:32;101816.28;;;-0.54;75.44
16355;BME280;8287;51.644;8.494;2023-02-28T04:33:00;101816.47;;;-0.55;75.63
16355;BME280;8287;51.644;8.494;2023-02-28T04:35:27;101833.88;;;-0.62;75.20
16355;BME280;8287;51.644;8.494;2023-02-28T04:37:54;101814.44;;;-0.66;75.61
16355;BME280;8287;51.644;8.494;2023-02-28T04:40:21;101824.25;;;-0.68;75.81
16355;BME280;8287;51.644;8.494;2023-02-28T04:42:48;101821.00;;;-0.77;75.72
16355;BME280;8287;51.644;8.494;2023-02-28T04:45:15;101830.97;;;-0.80;75.78
16355;BME280;8287;51.644;8.494;2023-02-28T04:47:42;101823.00;;;-0.79;75.71
16355;BME280;8287;51.644;8.494;2023-02-28T04:50:09;101825.00;;;-0.74;75.14
16355;BME280;8287;51.644;8.494;2023-02-28T04:52:36;101833.41;;;-0.72;74.99
16355;BME280;8287;51.644;8.494;2023-02-28T04:55:03;101837.03;;;-0.73;75.24
16355;BME280;8287;51.644;8.494;2023-02-28T04:57:32;101828.19;;;-0.79;75.05
16355;BME280;8287;51.644;8.494;2023-02-28T04:59:58;101824.81;;;-0.79;75.32
16355;BME280;8287;51.644;8.494;2023-02-28T05:02:25;101821.81;;;-0.76;74.95
16355;BME280;8287;51.644;8.494;2023-02-28T05:04:52;101830.41;;;-0.76;75.00
16355;BME280;8287;51.644;8.494;2023-02-28T05:07:18;101827.78;;;-0.82;74.96
16355;BME280;8287;51.644;8.494;2023-02-28T05:09:45;101837.16;;;-0.88;74.71
16355;BME280;8287;51.644;8.494;2023-02-28T05:12:12;101834.31;;;-0.93;75.12
16355;BME280;8287;51.644;8.494;2023-02-28T05:14:39;101836.56;;;-0.90;75.71
16355;BME280;8287;51.644;8.494;2023-02-28T05:17:06;101833.34;;;-0.92;75.57
16355;BME280;8287;51.644;8.494;2023-02-28T05:19:33;101832.53;;;-0.92;75.48
16355;BME280;8287;51.644;8.494;2023-02-28T05:21:59;101834.97;;;-0.84;75.22
16355;BME280;8287;51.644;8.494;2023-02-28T05:24:26;101820.13;;;-0.90;75.19
16355;BME280;8287;51.644;8.494;2023-02-28T05:26:53;101831.38;;;-0.83;75.31
16355;BME280;8287;51.644;8.494;2023-02-28T05:29:21;101837.16;;;-0.88;75.33
16355;BME280;8287;51.644;8.494;2023-02-28T05:31:49;101840.97;;;-0.84;75.60
16355;BME280;8287;51.644;8.494;2023-02-28T05:34:15;101835.13;;;-0.92;75.60
16355;BME280;8287;51.644;8.494;2023-02-28T05:36:42;101844.94;;;-0.94;76.11
16355;BME280;8287;51.644;8.494;2023-02-28T05:39:09;101838.41;;;-0.77;76.44
16355;BME280;8287;51.644;8.494;2023-02-28T05:41:41;101844.38;;;-0.83;75.83
16355;BME280;8287;51.644;8.494;2023-02-28T05:44:08;101841.44;;;-0.74;76.15
16355;BME280;8287;51.644;8.494;2023-02-28T05:46:34;101849.81;;;-0.78;75.84
16355;BME280;8287;51.644;8.494;2023-02-28T05:49:03;101845.81;;;-0.74;76.33
16355;BME280;8287;51.644;8.494;2023-02-28T05:51:29;101857.88;;;-0.67;76.13
16355;BME280;8287;51.644;8.494;2023-02-28T05:53:59;101843.66;;;-0.64;76.25
16355;BME280;8287;51.644;8.494;2023-02-28T05:56:26;101834.06;;;-0.64;75.74
16355;BME280;8287;51.644;8.494;2023-02-28T05:58:52;101836.66;;;-0.64;75.67
16355;BME280;8287;51.644;8.494;2023-02-28T06:01:26;101849.50;;;-0.62;76.20
16355;BME280;8287;51.644;8.494;2023-02-28T06:03:58;101848.50;;;-0.61;75.82
16355;BME280;8287;51.644;8.494;2023-02-28T06:06:26;101854.13;;;-0.58;76.21
16355;BME280;8287;51.644;8.494;2023-02-28T06:08:52;101856.75;;;-0.51;76.28
16355;BME280;8287;51.644;8.494;2023-02-28T06:11:19;101859.94;;;-0.49;76.34
16355;BME280;8287;51.644;8.494;2023-02-28T06:13:46;101863.97;;;-0.47;75.98
16355;BME280;8287;51.644;8.494;2023-02-28T06:16:12;101848.38;;;-0.40;75.76
16355;BME280;8287;51.644;8.494;2023-02-28T06:18:39;101848.78;;;-0.37;75.59
16355;BME280;8287;51.644;8.494;2023-02-28T06:21:06;101856.00;;;-0.26;75.79
16355;BME280;8287;51.644;8.494;2023-02-28T06:23:35;101855.66;;;-0.23;77.25
16355;BME280;8287;51.644;8.494;2023-02-28T06:26:02;101842.41;;;-0.21;76.99
16355;BME280;8287;51.644;8.494;2023-02-28T06:28:29;101852.47;;;-0.12;76.96
16355;BME280;8287;51.644;8.494;2023-02-28T06:30:55;101846.25;;;-0.05;76.57
16355;BME280;8287;51.644;8.494;2023-02-28T06:33:22;101849.63;;;-0.17;76.35
16355;BME280;8287;51.644;8.494;2023-02-28T06:35:50;101853.47;;;-0.13;76.84
16355;BME280;8287;51.644;8.494;2023-02-28T06:38:17;101849.66;;;-0.10;77.09
16355;BME280;8287;51.644;8.494;2023-02-28T06:40:53;101861.69;;;-0.09;77.53
16355;BME280;8287;51.644;8.494;2023-02-28T06:43:20;101874.31;;;-0.07;77.93
16355;BME280;8287;51.644;8.494;2023-02-28T06:45:47;101869.72;;;0.02;78.16
16355;BME280;8287;51.644;8.494;2023-02-28T06:48:13;101868.09;;;-0.06;77.35
16355;BME280;8287;51.644;8.494;2023-02-28T06:50:40;101870.09;;;-0.14;77.14
16355;BME280;8287;51.644;8.494;2023-02-28T06:53:06;101869.91;;;-0.12;77.29
16355;BME280;8287;51.644;8.494;2023-02-28T06:55:33;101870.88;;;-0.13;77.51
16355;BME280;8287;51.644;8.494;2023-02-28T06:58:01;101864.47;;;-0.05;77.02
16355;BME280;8287;51.644;8.494;2023-02-28T07:00:28;101874.94;;;0.02;76.15
16355;BME280;8287;51.644;8.494;2023-02-28T07:02:54;101874.72;;;0.03;76.00
16355;BME280;8287;51.644;8.494;2023-02-28T07:05:21;101882.34;;;0.11;76.08
16355;BME280;8287;51.644;8.494;2023-02-28T07:07:47;101880.38;;;0.13;75.85
16355;BME280;8287;51.644;8.494;2023-02-28T07:10:14;101893.22;;;0.21;75.81
16355;BME280;8287;51.644;8.494;2023-02-28T07:12:42;101893.00;;;0.16;75.12
16355;BME280;8287;51.644;8.494;2023-02-28T07:15:11;101896.63;;;0.15;75.07
16355;BME280;8287;51.644;8.494;2023-02-28T07:17:37;101887.78;;;0.16;75.32
16355;BME280;8287;51.644;8.494;2023-02-28T07:20:05;101899.59;;;0.12;75.01
16355;BME280;8287;51.644;8.494;2023-02-28T07:22:32;101897.00;;;0.12;74.17
16355;BME280;8287;51.644;8.494;2023-02-28T07:24:59;101902.00;;;0.20;74.39
16355;BME280;8287;51.644;8.494;2023-02-28T07:27:25;101901.41;;;0.25;74.23
16355;BME280;8287;51.644;8.494;2023-02-28T07:29:53;101897.03;;;0.19;74.54
16355;BME280;8287;51.644;8.494;2023-02-28T07:32:22;101904.03;;;0.18;74.82
16355;BME280;8287;51.644;8.494;2023-02-28T07:34:49;101899.22;;;0.28;75.08
16355;BME280;8287;51.644;8.494;2023-02-28T07:37:15;101912.66;;;0.32;74.87
16355;BME280;8287;51.644;8.494;2023-02-28T07:39:42;101903.25;;;0.37;74.77
16355;BME280;8287;51.644;8.494;2023-02-28T07:42:09;101905.84;;;0.37;75.00
16355;BME280;8287;51.644;8.494;2023-02-28T07:44:37;101895.84;;;0.34;75.24
16355;BME280;8287;51.644;8.494;2023-02-28T07:47:06;101898.66;;;0.46;75.56
16355;BME280;8287;51.644;8.494;2023-02-28T07:49:35;101901.47;;;0.57;76.39
16355;BME280;8287;51.644;8.494;2023-02-28T07:52:02;101897.25;;;0.69;75.56
16355;BME280;8287;51.644;8.494;2023-02-28T07:54:28;101896.25;;;0.70;75.30
16355;BME280;8287;51.644;8.494;2023-02-28T07:56:55;101898.44;;;0.80;74.84
16355;BME280;8287;51.644;8.494;2023-02-28T07:59:22;101899.88;;;0.76;74.89
16355;BME280;8287;51.644;8.494;2023-02-28T08:01:49;101904.28;;;0.75;74.87
16355;BME280;8287;51.644;8.494;2023-02-28T08:04:15;101908.47;;;0.76;75.22
16355;BME280;8287;51.644;8.494;2023-02-28T08:06:43;101898.66;;;0.72;74.97
16355;BME280;8287;51.644;8.494;2023-02-28T08:09:10;101912.28;;;0.74;74.80
16355;BME280;8287;51.644;8.494;2023-02-28T08:11:37;101909.28;;;0.70;74.49
16355;BME280;8287;51.644;8.494;2023-02-28T08:14:03;101907.88;;;0.87;74.83
16355;BME280;8287;51.644;8.494;2023-02-28T08:16:30;101907.06;;;0.93;75.39
16355;BME280;8287;51.644;8.494;2023-02-28T08:18:56;101902.44;;;1.08;75.41
16355;BME280;8287;51.644;8.494;2023-02-28T08:21:23;101899.19;;;1.19;74.76
16355;BME280;8287;51.644;8.494;2023-02-28T08:23:51;101897.34;;;1.33;74.22
16355;BME280;8287;51.644;8.494;2023-02-28T08:26:18;101914.03;;;1.38;74.75
16355;BME280;8287;51.644;8.494;2023-02-28T08:28:45;101907.97;;;1.44;74.67
16355;BME280;8287;51.644;8.494;2023-02-28T08:31:13;101907.53;;;1.54;74.27
16355;BME280;8287;51.644;8.494;2023-02-28T08:33:41;101908.53;;;1.59;73.93
16355;BME280;8287;51.644;8.494;2023-02-28T08:36:08;101906.69;;;1.66;73.68
16355;BME280;8287;51.644;8.494;2023-02-28T08:38:35;101915.91;;;1.75;72.89
16355;BME280;8287;51.644;8.494;2023-02-28T08:41:05;101906.84;;;1.71;71.69
16355;BME280;8287;51.644;8.494;2023-02-28T08:43:32;101908.41;;;1.85;71.53
16355;BME280;8287;51.644;8.494;2023-02-28T08:45:59;101909.19;;;1.92;71.86
16355;BME280;8287;51.644;8.494;2023-02-28T08:48:27;101905.28;;;2.08;71.50
16355;BME280;8287;51.644;8.494;2023-02-28T08:50:55;101895.34;;;2.23;71.80
16355;BME280;8287;51.644;8.494;2023-02-28T08:53:22;101905.09;;;2.40;70.82
16355;BME280;8287;51.644;8.494;2023-02-28T08:55:56;101900.13;;;2.57;69.64
16355;BME280;8287;51.644;8.494;2023-02-28T08:58:24;101899.53;;;2.79;69.05
16355;BME280;8287;51.644;8.494;2023-02-28T09:00:50;101894.28;;;2.79;68.09
16355;BME280;8287;51.644;8.494;2023-02-28T09:03:17;101892.34;;;2.93;67.49
16355;BME280;8287;51.644;8.494;2023-02-28T09:05:52;101895.16;;;3.15;67.61
16355;BME280;8287;51.644;8.494;2023-02-28T09:08:18;101892.53;;;3.15;66.38
16355;BME280;8287;51.644;8.494;2023-02-28T09:10:45;101894.78;;;3.30;65.83
16355;BME280;8287;51.644;8.494;2023-02-28T09:13:12;101890.22;;;3.43;65.68
16355;BME280;8287;51.644;8.494;2023-02-28T09:15:40;101893.31;;;3.70;65.01
16355;BME280;8287;51.644;8.494;2023-02-28T09:18:07;101880.69;;;3.96;64.67
16355;BME280;8287;51.644;8.494;2023-02-28T09:20:37;101890.97;;;4.09;63.88
16355;BME280;8287;51.644;8.494;2023-02-28T09:23:04;101882.44;;;4.14;61.45
16355;BME280;8287;51.644;8.494;2023-02-28T09:25:30;101882.81;;;4.29;62.21
16355;BME280;8287;51.644;8.494;2023-02-28T09:27:57;101887.19;;;4.35;62.16
16355;BME280;8287;51.644;8.494;2023-02-28T09:30:23;101882.56;;;4.60;60.21
16355;BME280;8287;51.644;8.494;2023-02-28T09:32:51;101887.47;;;4.68;60.91
16355;BME280;8287;51.644;8.494;2023-02-28T09:35:19;101880.94;;;4.82;60.81
16355;BME280;8287;51.644;8.494;2023-02-28T09:37:46;101888.59;;;4.95;60.13
16355;BME280;8287;51.644;8.494;2023-02-28T09:40:13;101889.19;;;4.97;59.16
16355;BME280;8287;51.644;8.494;2023-02-28T09:42:44;101883.44;;;5.23;59.59
16355;BME280;8287;51.644;8.494;2023-02-28T09:45:18;101885.81;;;5.47;60.22
16355;BME280;8287;51.644;8.494;2023-02-28T09:47:48;101874.13;;;5.55;59.91
16355;BME280;8287;51.644;8.494;2023-02-28T09:50:23;101880.91;;;5.79;58.66
16355;BME280;8287;51.644;8.494;2023-02-28T09:52:55;101884.91;;;5.93;56.54
16355;BME280;8287;51.644;8.494;2023-02-28T09:55:28;101889.63;;;5.79;55.19
16355;BME280;8287;51.644;8.494;2023-02-28T09:57:57;101880.72;;;5.80;55.23
16355;BME280;8287;51.644;8.494;2023-02-28T10:00:30;101890.53;;;5.85;54.85
16355;BME280;8287;51.644;8.494;2023-02-28T10:03:06;101894.00;;;5.62;54.95
16355;BME280;8287;51.644;8.494;2023-02-28T10:05:37;101893.06;;;5.68;56.32
16355;BME280;8287;51.644;8.494;2023-02-28T10:08:10;101882.97;;;5.77;56.88
16355;BME280;8287;51.644;8.494;2023-02-28T10:10:40;101883.94;;;5.99;56.62
16355;BME280;8287;51.644;8.494;2023-02-28T10:13:15;101879.63;;;5.93;55.90
16355;BME280;8287;51.644;8.494;2023-02-28T10:15:42;101876.34;;;6.30;56.29
16355;BME280;8287;51.644;8.494;2023-02-28T10:18:14;101877.97;;;6.64;55.32
16355;BME280;8287;51.644;8.494;2023-02-28T10:20:44;101874.66;;;6.73;53.75
16355;BME280;8287;51.644;8.494;2023-02-28T10:23:16;101866.34;;;6.98;53.54
16355;BME280;8287;51.644;8.494;2023-02-28T10:25:47;101871.66;;;7.19;52.54
16355;BME280;8287;51.644;8.494;2023-02-28T10:28:16;101877.09;;;7.13;50.77
16355;BME280;8287;51.644;8.494;2023-02-28T10:30:46;101880.38;;;7.03;51.23
16355;BME280;8287;51.644;8.494;2023-02-28T10:33:22;101880.50;;;6.75;49.95
16355;BME280;8287;51.644;8.494;2023-02-28T10:35:51;101877.63;;;6.93;50.34
16355;BME280;8287;51.644;8.494;2023-02-28T10:38:20;101869.00;;;6.48;49.31
16355;BME280;8287;51.644;8.494;2023-02-28T10:40:49;101867.16;;;6.32;48.89
16355;BME280;8287;51.644;8.494;2023-02-28T10:43:21;101864.34;;;6.06;48.99
16355;BME280;8287;51.644;8.494;2023-02-28T10:45:56;101855.91;;;6.21;50.54
16355;BME280;8287;51.644;8.494;2023-02-28T10:48:30;101859.06;;;6.50;49.54
16355;BME280;8287;51.644;8.494;2023-02-28T10:50:59;101868.44;;;6.79;49.81
16355;BME280;8287;51.644;8.494;2023-02-28T10:53:35;101862.16;;;6.64;49.20
16355;BME280;8287;51.644;8.494;2023-02-28T10:56:06;101853.44;;;6.80;50.40
16355;BME280;8287;51.644;8.494;2023-02-28T10:58:49;101854.13;;;7.08;49.70
16355;BME280;8287;51.644;8.494;2023-02-28T11:01:17;101852.97;;;7.42;47.83
16355;BME280;8287;51.644;8.494;2023-02-28T11:03:44;101854.78;;;7.42;48.08
16355;BME280;8287;51.644;8.494;2023-02-28T11:06:23;101848.38;;;6.95;48.20
16355;BME280;8287;51.644;8.494;2023-02-28T11:08:53;101845.28;;;7.19;47.71
16355;BME280;8287;51.644;8.494;2023-02-28T11:11:22;101845.22;;;7.36;48.31
16355;BME280;8287;51.644;8.494;2023-02-28T11:13:52;101838.00;;;8.01;49.16
16355;BME280;8287;51.644;8.494;2023-02-28T11:16:20;101825.94;;;8.36;46.69
16355;BME280;8287;51.644;8.494;2023-02-28T11:18:49;101835.63;;;8.26;45.82
16355;BME280;8287;51.644;8.494;2023-02-28T11:21:19;101830.19;;;8.42;45.83
16355;BME280;8287;51.644;8.494;2023-02-28T11:23:49;101834.63;;;8.68;45.08
16355;BME280;8287;51.644;8.494;2023-02-28T11:26:37;101824.69;;;8.85;44.95
16355;BME280;8287;51.644;8.494;2023-02-28T11:29:20;101827.34;;;8.85;43.43
16355;BME280;8287;51.644;8.494;2023-02-28T11:32:12;101829.00;;;8.60;43.17
16355;BME280;8287;51.644;8.494;2023-02-28T11:34:39;101825.03;;;8.57;43.56
16355;BME280;8287;51.644;8.494;2023-02-28T11:37:11;101831.44;;;8.30;43.65
16355;BME280;8287;51.644;8.494;2023-02-28T11:39:41;101823.56;;;8.08;42.29
16355;BME280;8287;51.644;8.494;2023-02-28T11:42:20;101825.34;;;8.03;43.93
16355;BME280;8287;51.644;8.494;2023-02-28T11:45:00;101818.09;;;7.88;44.21
16355;BME280;8287;51.644;8.494;2023-02-28T11:47:33;101823.13;;;7.90;45.64
16355;BME280;8287;51.644;8.494;2023-02-28T11:50:20;101809.34;;;8.82;48.39
16355;BME280;8287;51.644;8.494;2023-02-28T11:52:51;101806.25;;;8.95;47.28
16355;BME280;8287;51.644;8.494;2023-02-28T11:55:24;101809.94;;;8.94;47.32
16355;BME280;8287;51.644;8.494;2023-02-28T12:01:14;101804.69;;;9.09;47.51
16355;BME280;8287;51.644;8.494;2023-02-28T12:03:58;101800.66;;;9.53;46.21
16355;BME280;8287;51.644;8.494;2023-02-28T12:06:33;101796.97;;;9.64;46.28
16355;BME280;8287;51.644;8.494;2023-02-28T12:09:13;101797.41;;;9.31;45.60
16355;BME280;8287;51.644;8.494;2023-02-28T12:11:51;101793.44;;;9.34;44.46
16355;BME280;8287;51.644;8.494;2023-02-28T12:14:29;101797.34;;;9.11;44.88
16355;BME280;8287;51.644;8.494;2023-02-28T12:17:12;101791.56;;;9.34;44.88
16355;BME280;8287;51.644;8.494;2023-02-28T12:19:45;101787.63;;;9.37;45.82
16355;BME280;8287;51.644;8.494;2023-02-28T12:22:28;101787.19;;;9.74;44.76
16355;BME280;8287;51.644;8.494;2023-02-28T12:27:46;101778.50;;;10.04;44.57
16355;BME280;8287;51.644;8.494;2023-02-28T12:30:17;101769.47;;;10.40;43.51
16355;BME280;8287;51.644;8.494;2023-02-28T12:32:48;101765.47;;;10.57;43.66
16355;BME280;8287;51.644;8.494;2023-02-28T12:35:21;101769.94;;;10.72;43.75
16355;BME280;8287;51.644;8.494;2023-02-28T12:37:52;101760.34;;;10.86;41.96
16355;BME280;8287;51.644;8.494;2023-02-28T12:40:23;101764.31;;;10.93;43.66
16355;BME280;8287;51.644;8.494;2023-02-28T12:42:56;101758.25;;;10.78;40.89
16355;BME280;8287;51.644;8.494;2023-02-28T12:45:27;101759.72;;;11.09;41.94
16355;BME280;8287;51.644;8.494;2023-02-28T12:48:00;101758.72;;;10.95;42.68
16355;BME280;8287;51.644;8.494;2023-02-28T12:50:29;101754.16;;;11.10;43.13
16355;BME280;8287;51.644;8.494;2023-02-28T12:53:01;101755.84;;;11.40;42.54
16355;BME280;8287;51.644;8.494;2023-02-28T12:55:33;101750.78;;;11.48;42.49
16355;BME280;8287;51.644;8.494;2023-02-28T12:58:12;101753.78;;;11.27;41.44
16355;BME280;8287;51.644;8.494;2023-02-28T13:00:49;101741.72;;;11.49;43.34
16355;BME280;8287;51.644;8.494;2023-02-28T13:06:35;101733.06;;;11.77;42.00
16355;BME280;8287;51.644;8.494;2023-02-28T13:09:09;101744.59;;;11.09;40.37
16355;BME280;8287;51.644;8.494;2023-02-28T13:11:43;101725.66;;;11.31;41.29
16355;BME280;8287;51.644;8.494;2023-02-28T13:14:26;101724.13;;;11.97;39.78
16355;BME280;8287;51.644;8.494;2023-02-28T13:16:58;101730.66;;;11.76;40.24
16355;BME280;8287;51.644;8.494;2023-02-28T13:19:27;101728.03;;;11.32;41.46
16355;BME280;8287;51.644;8.494;2023-02-28T13:21:55;101731.78;;;11.26;41.64
16355;BME280;8287;51.644;8.494;2023-02-28T13:24:47;101723.97;;;11.45;41.37
16355;BME280;8287;51.644;8.494;2023-02-28T13:27:35;101720.75;;;11.53;40.76
16355;BME280;8287;51.644;8.494;2023-02-28T13:33:24;101713.06;;;12.18;39.80
16355;BME280;8287;51.644;8.494;2023-02-28T13:36:07;101714.88;;;12.23;41.06
16355;BME280;8287;51.644;8.494;2023-02-28T13:38:37;101710.63;;;12.22;39.72